Du Bois, Pennsylvania
Current Conditions -  °F | °C
As of 7:53 AM on Saturday 25 Oct 2014 (Local Time) from KDUJ Reporting Station
Broken Clouds Broken Clouds  
Wind Chill: 39°   Ceiling: 4000
Heat Index: 43°   Visibility: 10mi
Dew Point: 38°   Wind: 7mph
Humidity: 82%   Direction: 240°WSW
Pressure: 29.92"   Gusts: NA
Location:  41.12°N, 78.76°W
Report Text: KDUJ 251153Z AUTO 24006KT 10SM BKN040 06/03 A2992 RMK AO2 SLP135 T00610033 10078 20056 57003 $
Loading
Personal Weather Stations






























Interactive Weather Map
Tropical Storm Tracking
New forecast layout! Learn more

10-Day Weather Forecast

Advertisements
Track Severe Weather on mobile